sensor_id;sensor_type;location;lat;lon;timestamp;P1;durP1;ratioP1;P2;durP2;ratioP2
49840;SDS011;35738;49.890;5.930;2023-05-14T00:00:56;5.10;;;4.57;;
49840;SDS011;35738;49.890;5.930;2023-05-14T00:03:22;5.05;;;4.65;;
49840;SDS011;35738;49.890;5.930;2023-05-14T00:05:49;5.10;;;4.70;;
49840;SDS011;35738;49.890;5.930;2023-05-14T00:08:16;5.18;;;4.78;;
49840;SDS011;35738;49.890;5.930;2023-05-14T00:10:42;4.95;;;4.55;;
49840;SDS011;35738;49.890;5.930;2023-05-14T00:13:09;6.50;;;5.43;;
49840;SDS011;35738;49.890;5.930;2023-05-14T00:15:35;6.38;;;5.00;;
49840;SDS011;35738;49.890;5.930;2023-05-14T00:18:02;6.35;;;5.75;;
49840;SDS011;35738;49.890;5.930;2023-05-14T00:20:29;9.57;;;5.32;;
49840;SDS011;35738;49.890;5.930;2023-05-14T00:22:56;6.80;;;5.28;;
49840;SDS011;35738;49.890;5.930;2023-05-14T00:25:22;5.90;;;5.30;;
49840;SDS011;35738;49.890;5.930;2023-05-14T00:27:49;6.35;;;5.75;;
49840;SDS011;35738;49.890;5.930;2023-05-14T00:30:15;7.57;;;5.15;;
49840;SDS011;35738;49.890;5.930;2023-05-14T00:32:42;5.40;;;4.90;;
49840;SDS011;35738;49.890;5.930;2023-05-14T00:35:08;4.78;;;4.38;;
49840;SDS011;35738;49.890;5.930;2023-05-14T00:37:36;5.10;;;4.60;;
49840;SDS011;35738;49.890;5.930;2023-05-14T00:40:03;5.05;;;4.57;;
49840;SDS011;35738;49.890;5.930;2023-05-14T00:42:32;5.18;;;4.40;;
49840;SDS011;35738;49.890;5.930;2023-05-14T00:44:58;4.75;;;4.35;;
49840;SDS011;35738;49.890;5.930;2023-05-14T00:47:25;5.90;;;5.22;;
49840;SDS011;35738;49.890;5.930;2023-05-14T00:49:52;5.22;;;4.22;;
49840;SDS011;35738;49.890;5.930;2023-05-14T00:52:19;6.68;;;4.95;;
49840;SDS011;35738;49.890;5.930;2023-05-14T00:54:46;5.97;;;5.47;;
49840;SDS011;35738;49.890;5.930;2023-05-14T00:57:14;5.95;;;5.35;;
49840;SDS011;35738;49.890;5.930;2023-05-14T00:59:40;5.15;;;4.47;;
49840;SDS011;35738;49.890;5.930;2023-05-14T01:02:07;6.78;;;5.88;;
49840;SDS011;35738;49.890;5.930;2023-05-14T01:04:34;6.05;;;5.45;;
49840;SDS011;35738;49.890;5.930;2023-05-14T01:15:09;6.82;;;6.15;;
49840;SDS011;35738;49.890;5.930;2023-05-14T01:17:40;11.20;;;6.78;;
49840;SDS011;35738;49.890;5.930;2023-05-14T01:20:11;6.70;;;6.10;;
49840;SDS011;35738;49.890;5.930;2023-05-14T01:22:38;7.15;;;6.45;;
49840;SDS011;35738;49.890;5.930;2023-05-14T01:25:05;6.85;;;6.25;;
49840;SDS011;35738;49.890;5.930;2023-05-14T01:32:55;6.88;;;5.90;;
49840;SDS011;35738;49.890;5.930;2023-05-14T01:35:26;6.15;;;5.55;;
49840;SDS011;35738;49.890;5.930;2023-05-14T01:38:03;5.97;;;5.45;;
49840;SDS011;35738;49.890;5.930;2023-05-14T01:40:36;8.32;;;6.55;;
49840;SDS011;35738;49.890;5.930;2023-05-14T01:43:03;7.13;;;5.97;;
49840;SDS011;35738;49.890;5.930;2023-05-14T01:45:33;8.52;;;6.45;;
49840;SDS011;35738;49.890;5.930;2023-05-14T01:48:00;6.95;;;6.03;;
49840;SDS011;35738;49.890;5.930;2023-05-14T01:50:27;7.97;;;5.75;;
49840;SDS011;35738;49.890;5.930;2023-05-14T01:52:54;7.07;;;6.38;;
49840;SDS011;35738;49.890;5.930;2023-05-14T01:55:22;6.53;;;5.93;;
49840;SDS011;35738;49.890;5.930;2023-05-14T01:57:51;7.13;;;5.75;;
49840;SDS011;35738;49.890;5.930;2023-05-14T02:00:19;6.82;;;6.13;;
49840;SDS011;35738;49.890;5.930;2023-05-14T02:02:47;5.97;;;5.38;;
49840;SDS011;35738;49.890;5.930;2023-05-14T02:05:14;6.93;;;6.20;;
49840;SDS011;35738;49.890;5.930;2023-05-14T02:07:40;7.00;;;6.30;;
49840;SDS011;35738;49.890;5.930;2023-05-14T02:10:07;7.60;;;6.90;;
49840;SDS011;35738;49.890;5.930;2023-05-14T02:12:34;7.57;;;6.78;;
49840;SDS011;35738;49.890;5.930;2023-05-14T02:15:01;6.75;;;6.05;;
49840;SDS011;35738;49.890;5.930;2023-05-14T02:17:28;7.72;;;6.22;;
49840;SDS011;35738;49.890;5.930;2023-05-14T02:19:55;7.20;;;6.47;;
49840;SDS011;35738;49.890;5.930;2023-05-14T02:22:22;6.97;;;6.38;;
49840;SDS011;35738;49.890;5.930;2023-05-14T02:24:48;8.38;;;6.13;;
49840;SDS011;35738;49.890;5.930;2023-05-14T02:27:16;7.10;;;6.50;;
49840;SDS011;35738;49.890;5.930;2023-05-14T02:29:43;6.38;;;5.78;;
49840;SDS011;35738;49.890;5.930;2023-05-14T02:32:09;7.53;;;6.80;;
49840;SDS011;35738;49.890;5.930;2023-05-14T02:34:36;7.25;;;5.82;;
49840;SDS011;35738;49.890;5.930;2023-05-14T02:37:03;8.13;;;7.15;;
49840;SDS011;35738;49.890;5.930;2023-05-14T02:39:30;7.25;;;6.60;;
49840;SDS011;35738;49.890;5.930;2023-05-14T02:41:56;8.77;;;6.90;;
49840;SDS011;35738;49.890;5.930;2023-05-14T02:44:23;9.02;;;7.75;;
49840;SDS011;35738;49.890;5.930;2023-05-14T04:03:57;9.98;;;7.80;;
49840;SDS011;35738;49.890;5.930;2023-05-14T04:06:27;9.25;;;7.57;;
49840;SDS011;35738;49.890;5.930;2023-05-14T04:08:54;8.93;;;7.45;;
49840;SDS011;35738;49.890;5.930;2023-05-14T04:11:20;8.48;;;7.53;;
49840;SDS011;35738;49.890;5.930;2023-05-14T04:13:47;9.10;;;7.57;;
49840;SDS011;35738;49.890;5.930;2023-05-14T04:16:13;9.18;;;8.05;;
49840;SDS011;35738;49.890;5.930;2023-05-14T04:18:40;9.25;;;8.27;;
49840;SDS011;35738;49.890;5.930;2023-05-14T04:21:07;8.57;;;7.70;;
49840;SDS011;35738;49.890;5.930;2023-05-14T04:23:33;8.80;;;7.95;;
49840;SDS011;35738;49.890;5.930;2023-05-14T04:26:00;8.73;;;7.65;;
49840;SDS011;35738;49.890;5.930;2023-05-14T04:28:27;8.48;;;7.68;;
49840;SDS011;35738;49.890;5.930;2023-05-14T04:30:53;8.98;;;8.02;;
49840;SDS011;35738;49.890;5.930;2023-05-14T04:33:20;10.18;;;7.47;;
49840;SDS011;35738;49.890;5.930;2023-05-14T04:35:47;10.73;;;7.50;;
49840;SDS011;35738;49.890;5.930;2023-05-14T04:38:13;9.18;;;7.47;;
49840;SDS011;35738;49.890;5.930;2023-05-14T04:40:40;9.65;;;7.70;;
49840;SDS011;35738;49.890;5.930;2023-05-14T04:43:07;8.23;;;7.13;;
49840;SDS011;35738;49.890;5.930;2023-05-14T04:45:34;8.85;;;6.90;;
49840;SDS011;35738;49.890;5.930;2023-05-14T04:48:02;8.05;;;6.65;;
49840;SDS011;35738;49.890;5.930;2023-05-14T04:50:29;7.20;;;6.47;;
49840;SDS011;35738;49.890;5.930;2023-05-14T04:52:55;8.15;;;6.45;;
49840;SDS011;35738;49.890;5.930;2023-05-14T04:55:22;8.50;;;7.10;;
49840;SDS011;35738;49.890;5.930;2023-05-14T04:57:48;8.10;;;6.95;;
49840;SDS011;35738;49.890;5.930;2023-05-14T05:00:15;7.10;;;6.40;;
49840;SDS011;35738;49.890;5.930;2023-05-14T05:02:42;9.15;;;6.68;;
49840;SDS011;35738;49.890;5.930;2023-05-14T05:05:09;7.32;;;6.63;;
49840;SDS011;35738;49.890;5.930;2023-05-14T05:07:36;7.60;;;6.80;;
49840;SDS011;35738;49.890;5.930;2023-05-14T05:10:02;9.38;;;6.60;;
49840;SDS011;35738;49.890;5.930;2023-05-14T05:12:29;9.23;;;6.68;;
49840;SDS011;35738;49.890;5.930;2023-05-14T05:14:56;6.55;;;5.97;;
49840;SDS011;35738;49.890;5.930;2023-05-14T05:17:23;7.20;;;6.40;;
49840;SDS011;35738;49.890;5.930;2023-05-14T05:19:50;6.60;;;6.00;;
49840;SDS011;35738;49.890;5.930;2023-05-14T05:22:18;7.35;;;6.28;;
49840;SDS011;35738;49.890;5.930;2023-05-14T05:24:45;7.00;;;6.30;;
49840;SDS011;35738;49.890;5.930;2023-05-14T05:27:14;7.97;;;5.65;;
49840;SDS011;35738;49.890;5.930;2023-05-14T05:29:42;6.70;;;5.80;;
49840;SDS011;35738;49.890;5.930;2023-05-14T05:32:09;6.28;;;5.65;;
49840;SDS011;35738;49.890;5.930;2023-05-14T05:34:36;7.38;;;5.80;;
49840;SDS011;35738;49.890;5.930;2023-05-14T05:37:02;6.10;;;5.50;;
49840;SDS011;35738;49.890;5.930;2023-05-14T05:39:31;6.28;;;5.75;;
49840;SDS011;35738;49.890;5.930;2023-05-14T05:42:00;6.43;;;5.82;;
49840;SDS011;35738;49.890;5.930;2023-05-14T05:44:27;8.48;;;5.60;;
49840;SDS011;35738;49.890;5.930;2023-05-14T05:46:54;6.28;;;5.68;;
49840;SDS011;35738;49.890;5.930;2023-05-14T05:49:22;5.45;;;4.95;;
49840;SDS011;35738;49.890;5.930;2023-05-14T05:51:49;6.30;;;5.70;;
49840;SDS011;35738;49.890;5.930;2023-05-14T05:54:15;7.65;;;5.57;;
49840;SDS011;35738;49.890;5.930;2023-05-14T05:56:44;4.88;;;4.40;;
49840;SDS011;35738;49.890;5.930;2023-05-14T05:59:10;5.85;;;5.30;;
49840;SDS011;35738;49.890;5.930;2023-05-14T06:01:37;5.57;;;5.07;;
49840;SDS011;35738;49.890;5.930;2023-05-14T06:04:05;5.53;;;5.03;;
49840;SDS011;35738;49.890;5.930;2023-05-14T06:06:32;5.85;;;5.35;;
49840;SDS011;35738;49.890;5.930;2023-05-14T06:08:58;6.72;;;5.40;;
49840;SDS011;35738;49.890;5.930;2023-05-14T06:11:26;5.13;;;4.72;;
49840;SDS011;35738;49.890;5.930;2023-05-14T06:13:53;5.78;;;4.70;;
49840;SDS011;35738;49.890;5.930;2023-05-14T06:16:20;5.40;;;4.90;;
49840;SDS011;35738;49.890;5.930;2023-05-14T06:18:46;4.72;;;4.22;;
49840;SDS011;35738;49.890;5.930;2023-05-14T06:21:13;4.85;;;4.45;;
49840;SDS011;35738;49.890;5.930;2023-05-14T06:23:40;5.97;;;5.40;;
49840;SDS011;35738;49.890;5.930;2023-05-14T06:26:08;7.20;;;5.40;;
49840;SDS011;35738;49.890;5.930;2023-05-14T06:28:35;5.63;;;5.05;;
49840;SDS011;35738;49.890;5.930;2023-05-14T06:31:01;6.60;;;4.38;;
49840;SDS011;35738;49.890;5.930;2023-05-14T06:33:28;5.20;;;4.53;;
49840;SDS011;35738;49.890;5.930;2023-05-14T06:35:59;5.55;;;4.93;;
49840;SDS011;35738;49.890;5.930;2023-05-14T06:38:28;5.80;;;5.30;;
49840;SDS011;35738;49.890;5.930;2023-05-14T06:40:55;6.10;;;5.57;;
49840;SDS011;35738;49.890;5.930;2023-05-14T06:43:22;5.78;;;5.28;;
49840;SDS011;35738;49.890;5.930;2023-05-14T06:45:49;5.97;;;5.00;;
49840;SDS011;35738;49.890;5.930;2023-05-14T06:48:17;6.63;;;6.00;;
49840;SDS011;35738;49.890;5.930;2023-05-14T06:50:45;5.90;;;5.30;;
49840;SDS011;35738;49.890;5.930;2023-05-14T06:53:13;6.47;;;5.88;;
49840;SDS011;35738;49.890;5.930;2023-05-14T06:55:41;6.05;;;5.32;;
49840;SDS011;35738;49.890;5.930;2023-05-14T06:58:08;6.45;;;5.72;;
49840;SDS011;35738;49.890;5.930;2023-05-14T07:00:34;7.40;;;5.60;;
49840;SDS011;35738;49.890;5.930;2023-05-14T07:03:01;6.78;;;5.85;;
49840;SDS011;35738;49.890;5.930;2023-05-14T07:05:28;7.00;;;5.43;;
49840;SDS011;35738;49.890;5.930;2023-05-14T07:07:54;5.20;;;4.60;;
49840;SDS011;35738;49.890;5.930;2023-05-14T07:10:21;6.97;;;5.45;;
49840;SDS011;35738;49.890;5.930;2023-05-14T07:12:48;5.90;;;5.40;;
49840;SDS011;35738;49.890;5.930;2023-05-14T07:15:15;5.95;;;5.30;;
49840;SDS011;35738;49.890;5.930;2023-05-14T07:17:41;5.57;;;5.07;;
49840;SDS011;35738;49.890;5.930;2023-05-14T07:20:08;6.05;;;5.45;;
49840;SDS011;35738;49.890;5.930;2023-05-14T07:22:35;5.32;;;4.80;;
49840;SDS011;35738;49.890;5.930;2023-05-14T07:25:01;5.82;;;5.22;;
49840;SDS011;35738;49.890;5.930;2023-05-14T07:27:28;5.22;;;4.72;;
49840;SDS011;35738;49.890;5.930;2023-05-14T07:29:56;5.97;;;5.38;;
49840;SDS011;35738;49.890;5.930;2023-05-14T07:32:22;5.72;;;5.00;;
49840;SDS011;35738;49.890;5.930;2023-05-14T07:34:50;5.43;;;4.82;;
49840;SDS011;35738;49.890;5.930;2023-05-14T07:37:17;5.45;;;4.50;;
49840;SDS011;35738;49.890;5.930;2023-05-14T07:39:44;5.57;;;5.07;;
49840;SDS011;35738;49.890;5.930;2023-05-14T07:42:10;5.80;;;4.80;;
49840;SDS011;35738;49.890;5.930;2023-05-14T07:44:50;6.55;;;5.82;;
49840;SDS011;35738;49.890;5.930;2023-05-14T07:47:17;6.32;;;5.10;;
49840;SDS011;35738;49.890;5.930;2023-05-14T07:49:43;4.90;;;4.45;;
49840;SDS011;35738;49.890;5.930;2023-05-14T07:52:10;6.13;;;5.53;;
49840;SDS011;35738;49.890;5.930;2023-05-14T07:54:37;5.93;;;5.43;;
49840;SDS011;35738;49.890;5.930;2023-05-14T07:57:04;5.75;;;5.25;;
49840;SDS011;35738;49.890;5.930;2023-05-14T07:59:31;8.73;;;5.30;;
49840;SDS011;35738;49.890;5.930;2023-05-14T08:01:57;5.40;;;4.90;;
49840;SDS011;35738;49.890;5.930;2023-05-14T08:04:24;5.90;;;5.22;;
49840;SDS011;35738;49.890;5.930;2023-05-14T08:06:51;6.50;;;5.28;;
49840;SDS011;35738;49.890;5.930;2023-05-14T08:09:18;6.28;;;4.82;;
49840;SDS011;35738;49.890;5.930;2023-05-14T08:11:44;9.88;;;5.20;;
49840;SDS011;35738;49.890;5.930;2023-05-14T08:14:11;8.45;;;5.20;;
49840;SDS011;35738;49.890;5.930;2023-05-14T08:16:37;5.35;;;4.82;;
49840;SDS011;35738;49.890;5.930;2023-05-14T08:19:04;5.82;;;4.70;;
49840;SDS011;35738;49.890;5.930;2023-05-14T08:21:31;6.20;;;5.60;;
49840;SDS011;35738;49.890;5.930;2023-05-14T08:23:58;5.40;;;4.90;;
49840;SDS011;35738;49.890;5.930;2023-05-14T08:26:26;5.75;;;5.00;;
49840;SDS011;35738;49.890;5.930;2023-05-14T08:28:52;5.30;;;4.80;;
49840;SDS011;35738;49.890;5.930;2023-05-14T08:31:21;8.10;;;5.07;;
49840;SDS011;35738;49.890;5.930;2023-05-14T08:33:47;5.07;;;4.60;;
49840;SDS011;35738;49.890;5.930;2023-05-14T08:36:14;7.13;;;5.20;;
49840;SDS011;35738;49.890;5.930;2023-05-14T08:38:41;5.25;;;4.68;;
49840;SDS011;35738;49.890;5.930;2023-05-14T08:41:09;4.97;;;4.53;;
49840;SDS011;35738;49.890;5.930;2023-05-14T08:43:42;9.68;;;4.97;;
49840;SDS011;35738;49.890;5.930;2023-05-14T08:46:12;5.65;;;4.80;;
49840;SDS011;35738;49.890;5.930;2023-05-14T08:48:41;4.78;;;4.38;;
49840;SDS011;35738;49.890;5.930;2023-05-14T08:51:08;4.82;;;4.43;;
49840;SDS011;35738;49.890;5.930;2023-05-14T08:53:35;7.72;;;4.30;;
49840;SDS011;35738;49.890;5.930;2023-05-14T08:56:03;7.15;;;4.72;;
49840;SDS011;35738;49.890;5.930;2023-05-14T08:58:31;6.22;;;4.55;;
49840;SDS011;35738;49.890;5.930;2023-05-14T09:00:58;5.20;;;4.18;;
49840;SDS011;35738;49.890;5.930;2023-05-14T09:03:24;4.38;;;3.95;;
49840;SDS011;35738;49.890;5.930;2023-05-14T09:05:51;4.40;;;4.00;;
49840;SDS011;35738;49.890;5.930;2023-05-14T09:08:19;4.18;;;3.78;;
49840;SDS011;35738;49.890;5.930;2023-05-14T09:10:45;4.00;;;3.70;;
49840;SDS011;35738;49.890;5.930;2023-05-14T09:13:13;5.07;;;3.83;;
49840;SDS011;35738;49.890;5.930;2023-05-14T09:15:39;4.00;;;3.60;;
49840;SDS011;35738;49.890;5.930;2023-05-14T09:18:06;6.38;;;4.00;;
49840;SDS011;35738;49.890;5.930;2023-05-14T09:20:33;3.80;;;3.50;;
49840;SDS011;35738;49.890;5.930;2023-05-14T09:23:00;5.63;;;3.70;;
49840;SDS011;35738;49.890;5.930;2023-05-14T09:25:26;4.38;;;3.75;;
49840;SDS011;35738;49.890;5.930;2023-05-14T09:27:57;6.07;;;3.95;;
49840;SDS011;35738;49.890;5.930;2023-05-14T09:30:24;6.03;;;4.18;;
49840;SDS011;35738;49.890;5.930;2023-05-14T09:32:54;4.10;;;3.70;;
49840;SDS011;35738;49.890;5.930;2023-05-14T09:35:24;4.18;;;3.40;;
49840;SDS011;35738;49.890;5.930;2023-05-14T09:37:51;4.80;;;3.75;;
49840;SDS011;35738;49.890;5.930;2023-05-14T09:40:20;4.68;;;3.72;;
49840;SDS011;35738;49.890;5.930;2023-05-14T09:42:49;4.25;;;3.40;;
49840;SDS011;35738;49.890;5.930;2023-05-14T09:45:16;4.53;;;3.70;;
49840;SDS011;35738;49.890;5.930;2023-05-14T09:47:43;3.63;;;3.33;;
49840;SDS011;35738;49.890;5.930;2023-05-14T09:50:10;4.75;;;3.58;;
49840;SDS011;35738;49.890;5.930;2023-05-14T09:52:37;4.82;;;4.00;;
49840;SDS011;35738;49.890;5.930;2023-05-14T09:55:04;7.93;;;3.72;;
49840;SDS011;35738;49.890;5.930;2023-05-14T09:57:31;5.18;;;4.00;;
49840;SDS011;35738;49.890;5.930;2023-05-14T09:59:58;5.53;;;3.60;;
49840;SDS011;35738;49.890;5.930;2023-05-14T10:02:26;5.13;;;3.65;;
49840;SDS011;35738;49.890;5.930;2023-05-14T10:05:04;4.80;;;3.65;;
49840;SDS011;35738;49.890;5.930;2023-05-14T10:07:38;3.88;;;3.58;;
49840;SDS011;35738;49.890;5.930;2023-05-14T10:10:15;8.43;;;3.53;;
49840;SDS011;35738;49.890;5.930;2023-05-14T10:12:56;5.47;;;3.80;;
49840;SDS011;35738;49.890;5.930;2023-05-14T10:15:32;4.30;;;3.35;;
49840;SDS011;35738;49.890;5.930;2023-05-14T10:18:09;3.40;;;3.10;;
49840;SDS011;35738;49.890;5.930;2023-05-14T10:20:39;4.57;;;3.42;;
49840;SDS011;35738;49.890;5.930;2023-05-14T10:23:06;7.25;;;3.92;;
49840;SDS011;35738;49.890;5.930;2023-05-14T10:25:33;3.83;;;3.53;;
49840;SDS011;35738;49.890;5.930;2023-05-14T10:28:02;4.85;;;3.30;;
49840;SDS011;35738;49.890;5.930;2023-05-14T10:30:29;5.05;;;3.42;;
49840;SDS011;35738;49.890;5.930;2023-05-14T10:33:04;4.85;;;3.50;;
49840;SDS011;35738;49.890;5.930;2023-05-14T10:35:49;4.25;;;3.65;;
49840;SDS011;35738;49.890;5.930;2023-05-14T10:38:20;4.35;;;3.90;;
49840;SDS011;35738;49.890;5.930;2023-05-14T10:40:48;4.78;;;3.60;;
49840;SDS011;35738;49.890;5.930;2023-05-14T10:43:17;3.00;;;2.80;;
49840;SDS011;35738;49.890;5.930;2023-05-14T10:45:45;3.83;;;3.10;;
49840;SDS011;35738;49.890;5.930;2023-05-14T10:48:12;3.78;;;3.35;;
49840;SDS011;35738;49.890;5.930;2023-05-14T10:50:40;5.22;;;3.30;;
49840;SDS011;35738;49.890;5.930;2023-05-14T10:53:09;4.22;;;3.30;;
49840;SDS011;35738;49.890;5.930;2023-05-14T10:55:38;3.50;;;3.20;;
49840;SDS011;35738;49.890;5.930;2023-05-14T10:58:05;5.28;;;3.55;;
49840;SDS011;35738;49.890;5.930;2023-05-14T11:00:33;3.72;;;3.42;;
49840;SDS011;35738;49.890;5.930;2023-05-14T11:03:02;4.28;;;3.67;;
49840;SDS011;35738;49.890;5.930;2023-05-14T11:05:30;8.38;;;5.60;;
49840;SDS011;35738;49.890;5.930;2023-05-14T11:07:59;16.38;;;12.77;;
49840;SDS011;35738;49.890;5.930;2023-05-14T11:10:34;24.83;;;17.92;;
49840;SDS011;35738;49.890;5.930;2023-05-14T11:13:01;23.52;;;17.30;;
49840;SDS011;35738;49.890;5.930;2023-05-14T11:15:27;25.25;;;17.33;;
49840;SDS011;35738;49.890;5.930;2023-05-14T11:17:54;24.00;;;17.23;;
49840;SDS011;35738;49.890;5.930;2023-05-14T11:20:21;25.17;;;17.73;;
49840;SDS011;35738;49.890;5.930;2023-05-14T11:22:48;29.67;;;19.70;;
49840;SDS011;35738;49.890;5.930;2023-05-14T11:25:16;29.10;;;20.92;;
49840;SDS011;35738;49.890;5.930;2023-05-14T11:27:44;27.50;;;19.33;;
49840;SDS011;35738;49.890;5.930;2023-05-14T11:32:43;29.70;;;21.15;;
49840;SDS011;35738;49.890;5.930;2023-05-14T11:35:11;27.85;;;20.85;;
49840;SDS011;35738;49.890;5.930;2023-05-14T11:37:39;31.15;;;21.88;;
49840;SDS011;35738;49.890;5.930;2023-05-14T11:40:06;27.75;;;21.13;;
49840;SDS011;35738;49.890;5.930;2023-05-14T11:42:39;30.00;;;20.45;;
49840;SDS011;35738;49.890;5.930;2023-05-14T11:45:06;26.80;;;19.70;;
49840;SDS011;35738;49.890;5.930;2023-05-14T11:47:36;24.58;;;17.60;;
49840;SDS011;35738;49.890;5.930;2023-05-14T11:50:03;21.55;;;16.17;;
49840;SDS011;35738;49.890;5.930;2023-05-14T11:52:30;19.23;;;15.05;;
49840;SDS011;35738;49.890;5.930;2023-05-14T11:55:03;19.33;;;15.40;;
49840;SDS011;35738;49.890;5.930;2023-05-14T11:57:30;18.75;;;14.18;;
49840;SDS011;35738;49.890;5.930;2023-05-14T11:59:56;21.02;;;14.57;;
49840;SDS011;35738;49.890;5.930;2023-05-14T12:02:25;22.25;;;15.85;;
49840;SDS011;35738;49.890;5.930;2023-05-14T12:04:54;18.48;;;14.85;;
49840;SDS011;35738;49.890;5.930;2023-05-14T12:07:20;18.02;;;13.80;;
49840;SDS011;35738;49.890;5.930;2023-05-14T12:09:47;22.00;;;14.25;;
49840;SDS011;35738;49.890;5.930;2023-05-14T12:12:16;17.58;;;13.30;;
49840;SDS011;35738;49.890;5.930;2023-05-14T12:14:45;15.70;;;12.98;;
49840;SDS011;35738;49.890;5.930;2023-05-14T12:17:16;15.05;;;12.93;;
49840;SDS011;35738;49.890;5.930;2023-05-14T12:19:46;16.92;;;13.13;;
49840;SDS011;35738;49.890;5.930;2023-05-14T12:22:18;14.80;;;12.18;;
49840;SDS011;35738;49.890;5.930;2023-05-14T12:24:54;18.02;;;13.60;;
49840;SDS011;35738;49.890;5.930;2023-05-14T12:27:22;20.75;;;15.73;;
49840;SDS011;35738;49.890;5.930;2023-05-14T12:29:50;19.38;;;15.70;;
49840;SDS011;35738;49.890;5.930;2023-05-14T12:32:48;21.63;;;16.10;;
49840;SDS011;35738;49.890;5.930;2023-05-14T12:35:17;21.25;;;16.83;;
49840;SDS011;35738;49.890;5.930;2023-05-14T12:37:44;23.17;;;17.02;;
49840;SDS011;35738;49.890;5.930;2023-05-14T12:40:10;17.80;;;14.05;;
49840;SDS011;35738;49.890;5.930;2023-05-14T12:42:37;17.25;;;14.13;;
49840;SDS011;35738;49.890;5.930;2023-05-14T12:45:04;13.35;;;11.95;;
49840;SDS011;35738;49.890;5.930;2023-05-14T12:47:33;7.78;;;6.28;;
49840;SDS011;35738;49.890;5.930;2023-05-14T12:50:00;5.72;;;5.13;;
49840;SDS011;35738;49.890;5.930;2023-05-14T12:52:27;5.30;;;4.80;;
49840;SDS011;35738;49.890;5.930;2023-05-14T12:55:03;6.15;;;5.07;;
49840;SDS011;35738;49.890;5.930;2023-05-14T12:57:30;5.22;;;4.72;;
49840;SDS011;35738;49.890;5.930;2023-05-14T12:59:57;5.15;;;4.65;;
49840;SDS011;35738;49.890;5.930;2023-05-14T13:02:24;7.38;;;5.22;;
49840;SDS011;35738;49.890;5.930;2023-05-14T13:04:50;6.45;;;5.78;;
49840;SDS011;35738;49.890;5.930;2023-05-14T13:07:17;6.45;;;5.45;;
49840;SDS011;35738;49.890;5.930;2023-05-14T13:09:43;9.18;;;7.05;;
49840;SDS011;35738;49.890;5.930;2023-05-14T13:12:10;8.45;;;7.18;;
49840;SDS011;35738;49.890;5.930;2023-05-14T13:14:37;10.68;;;7.60;;
49840;SDS011;35738;49.890;5.930;2023-05-14T13:17:03;9.13;;;7.25;;
49840;SDS011;35738;49.890;5.930;2023-05-14T13:19:30;8.77;;;6.88;;
49840;SDS011;35738;49.890;5.930;2023-05-14T13:21:57;7.78;;;6.97;;
49840;SDS011;35738;49.890;5.930;2023-05-14T13:24:23;9.77;;;8.77;;
49840;SDS011;35738;49.890;5.930;2023-05-14T13:26:50;9.70;;;7.82;;
49840;SDS011;35738;49.890;5.930;2023-05-14T13:29:17;8.68;;;7.50;;
49840;SDS011;35738;49.890;5.930;2023-05-14T13:31:43;8.57;;;7.15;;
49840;SDS011;35738;49.890;5.930;2023-05-14T13:34:10;8.80;;;6.72;;
49840;SDS011;35738;49.890;5.930;2023-05-14T13:36:38;7.22;;;6.53;;
49840;SDS011;35738;49.890;5.930;2023-05-14T13:39:05;7.78;;;6.55;;
49840;SDS011;35738;49.890;5.930;2023-05-14T13:41:32;8.98;;;6.85;;
49840;SDS011;35738;49.890;5.930;2023-05-14T13:44:01;7.93;;;6.72;;
49840;SDS011;35738;49.890;5.930;2023-05-14T13:46:27;28.65;;;20.38;;
49840;SDS011;35738;49.890;5.930;2023-05-14T13:48:54;10.82;;;9.73;;
49840;SDS011;35738;49.890;5.930;2023-05-14T13:51:21;10.85;;;8.40;;
49840;SDS011;35738;49.890;5.930;2023-05-14T13:53:48;7.57;;;6.88;;
49840;SDS011;35738;49.890;5.930;2023-05-14T13:56:15;8.77;;;7.28;;
49840;SDS011;35738;49.890;5.930;2023-05-14T13:58:42;8.82;;;6.60;;
49840;SDS011;35738;49.890;5.930;2023-05-14T14:01:08;8.38;;;6.55;;
49840;SDS011;35738;49.890;5.930;2023-05-14T14:03:35;11.30;;;7.40;;
49840;SDS011;35738;49.890;5.930;2023-05-14T14:06:01;9.20;;;8.30;;
49840;SDS011;35738;49.890;5.930;2023-05-14T14:08:28;8.93;;;7.82;;
49840;SDS011;35738;49.890;5.930;2023-05-14T14:10:56;10.02;;;8.57;;
49840;SDS011;35738;49.890;5.930;2023-05-14T14:13:22;9.50;;;8.13;;
49840;SDS011;35738;49.890;5.930;2023-05-14T14:15:49;11.25;;;9.15;;
49840;SDS011;35738;49.890;5.930;2023-05-14T14:18:16;10.77;;;8.75;;
49840;SDS011;35738;49.890;5.930;2023-05-14T14:20:43;11.23;;;8.68;;
49840;SDS011;35738;49.890;5.930;2023-05-14T14:23:09;9.10;;;7.78;;
49840;SDS011;35738;49.890;5.930;2023-05-14T14:25:36;10.35;;;7.93;;
49840;SDS011;35738;49.890;5.930;2023-05-14T14:28:02;9.15;;;7.90;;
49840;SDS011;35738;49.890;5.930;2023-05-14T14:30:29;9.60;;;7.18;;
49840;SDS011;35738;49.890;5.930;2023-05-14T14:32:55;7.28;;;6.47;;
49840;SDS011;35738;49.890;5.930;2023-05-14T14:35:22;7.47;;;6.30;;
49840;SDS011;35738;49.890;5.930;2023-05-14T14:37:49;6.10;;;5.50;;
49840;SDS011;35738;49.890;5.930;2023-05-14T14:40:18;6.90;;;6.20;;
49840;SDS011;35738;49.890;5.930;2023-05-14T14:42:45;8.82;;;7.05;;
49840;SDS011;35738;49.890;5.930;2023-05-14T14:45:12;7.75;;;6.05;;
49840;SDS011;35738;49.890;5.930;2023-05-14T14:47:41;9.30;;;7.57;;
49840;SDS011;35738;49.890;5.930;2023-05-14T14:50:13;10.05;;;8.18;;
49840;SDS011;35738;49.890;5.930;2023-05-14T14:52:40;8.00;;;7.20;;
49840;SDS011;35738;49.890;5.930;2023-05-14T14:55:11;10.52;;;8.18;;
49840;SDS011;35738;49.890;5.930;2023-05-14T14:57:38;11.18;;;8.52;;
49840;SDS011;35738;49.890;5.930;2023-05-14T15:00:05;9.48;;;7.68;;
49840;SDS011;35738;49.890;5.930;2023-05-14T15:02:32;12.50;;;7.60;;
49840;SDS011;35738;49.890;5.930;2023-05-14T15:04:58;9.68;;;7.07;;
49840;SDS011;35738;49.890;5.930;2023-05-14T15:07:25;8.02;;;6.22;;
49840;SDS011;35738;49.890;5.930;2023-05-14T15:09:51;6.72;;;6.00;;
49840;SDS011;35738;49.890;5.930;2023-05-14T15:12:18;7.28;;;6.32;;
49840;SDS011;35738;49.890;5.930;2023-05-14T15:14:45;7.18;;;6.47;;
49840;SDS011;35738;49.890;5.930;2023-05-14T15:17:11;10.90;;;7.50;;
49840;SDS011;35738;49.890;5.930;2023-05-14T15:19:38;11.13;;;7.50;;
49840;SDS011;35738;49.890;5.930;2023-05-14T15:22:04;7.57;;;6.88;;
49840;SDS011;35738;49.890;5.930;2023-05-14T15:24:31;9.70;;;6.88;;
49840;SDS011;35738;49.890;5.930;2023-05-14T15:26:57;8.13;;;6.35;;
49840;SDS011;35738;49.890;5.930;2023-05-14T15:29:24;6.78;;;6.07;;
49840;SDS011;35738;49.890;5.930;2023-05-14T15:31:50;8.65;;;5.95;;
49840;SDS011;35738;49.890;5.930;2023-05-14T15:34:17;6.25;;;5.35;;
49840;SDS011;35738;49.890;5.930;2023-05-14T15:36:44;9.88;;;6.10;;
49840;SDS011;35738;49.890;5.930;2023-05-14T15:39:10;9.63;;;5.95;;
49840;SDS011;35738;49.890;5.930;2023-05-14T15:41:37;7.40;;;6.53;;
49840;SDS011;35738;49.890;5.930;2023-05-14T15:44:04;7.35;;;5.88;;
49840;SDS011;35738;49.890;5.930;2023-05-14T15:46:31;6.40;;;5.25;;
49840;SDS011;35738;49.890;5.930;2023-05-14T15:48:57;6.43;;;5.25;;
49840;SDS011;35738;49.890;5.930;2023-05-14T15:51:25;8.93;;;6.30;;
49840;SDS011;35738;49.890;5.930;2023-05-14T15:53:52;6.32;;;5.70;;
49840;SDS011;35738;49.890;5.930;2023-05-14T15:56:20;6.20;;;5.60;;
49840;SDS011;35738;49.890;5.930;2023-05-14T15:58:47;7.32;;;5.40;;
49840;SDS011;35738;49.890;5.930;2023-05-14T16:01:14;7.97;;;5.50;;
49840;SDS011;35738;49.890;5.930;2023-05-14T16:03:41;6.55;;;4.75;;
49840;SDS011;35738;49.890;5.930;2023-05-14T16:06:08;6.07;;;4.95;;
49840;SDS011;35738;49.890;5.930;2023-05-14T16:08:35;5.88;;;5.15;;
49840;SDS011;35738;49.890;5.930;2023-05-14T16:11:03;5.82;;;5.20;;
49840;SDS011;35738;49.890;5.930;2023-05-14T16:13:30;6.10;;;5.25;;
49840;SDS011;35738;49.890;5.930;2023-05-14T16:15:57;6.70;;;5.13;;
49840;SDS011;35738;49.890;5.930;2023-05-14T16:18:25;6.30;;;4.82;;